sensor_id;sensor_type;location;lat;lon;timestamp;P1;durP1;ratioP1;P2;durP2;ratioP2
33902;SDS011;20194;50.950;5.346;2023-10-19T00:00:54;6.22;;;2.60;;
33902;SDS011;20194;50.950;5.346;2023-10-19T00:03:21;6.05;;;2.90;;
33902;SDS011;20194;50.950;5.346;2023-10-19T00:05:48;2.55;;;2.28;;
33902;SDS011;20194;50.950;5.346;2023-10-19T00:08:15;4.90;;;3.03;;
33902;SDS011;20194;50.950;5.346;2023-10-19T00:10:48;4.38;;;2.67;;
33902;SDS011;20194;50.950;5.346;2023-10-19T00:13:36;2.33;;;2.13;;
33902;SDS011;20194;50.950;5.346;2023-10-19T00:16:03;5.78;;;2.50;;
33902;SDS011;20194;50.950;5.346;2023-10-19T00:18:45;3.92;;;2.33;;
33902;SDS011;20194;50.950;5.346;2023-10-19T00:21:14;3.25;;;2.40;;
33902;SDS011;20194;50.950;5.346;2023-10-19T00:23:50;3.00;;;2.35;;
33902;SDS011;20194;50.950;5.346;2023-10-19T00:26:20;3.47;;;2.17;;
33902;SDS011;20194;50.950;5.346;2023-10-19T00:28:48;3.10;;;2.80;;
33902;SDS011;20194;50.950;5.346;2023-10-19T00:31:18;3.15;;;2.17;;
33902;SDS011;20194;50.950;5.346;2023-10-19T00:33:45;5.95;;;2.75;;
33902;SDS011;20194;50.950;5.346;2023-10-19T00:36:11;5.85;;;2.80;;
33902;SDS011;20194;50.950;5.346;2023-10-19T00:38:40;6.57;;;2.83;;
33902;SDS011;20194;50.950;5.346;2023-10-19T00:41:18;3.70;;;2.20;;
33902;SDS011;20194;50.950;5.346;2023-10-19T00:43:55;5.22;;;2.22;;
33902;SDS011;20194;50.950;5.346;2023-10-19T00:46:30;3.58;;;2.30;;
33902;SDS011;20194;50.950;5.346;2023-10-19T00:49:08;5.13;;;1.88;;
33902;SDS011;20194;50.950;5.346;2023-10-19T00:54:25;4.20;;;1.83;;
33902;SDS011;20194;50.950;5.346;2023-10-19T00:57:07;6.55;;;1.40;;
33902;SDS011;20194;50.950;5.346;2023-10-19T00:59:35;4.53;;;1.48;;
33902;SDS011;20194;50.950;5.346;2023-10-19T01:02:29;4.40;;;1.50;;
33902;SDS011;20194;50.950;5.346;2023-10-19T01:04:55;3.55;;;1.13;;
33902;SDS011;20194;50.950;5.346;2023-10-19T01:07:26;5.38;;;1.33;;
33902;SDS011;20194;50.950;5.346;2023-10-19T01:09:57;7.78;;;1.63;;
33902;SDS011;20194;50.950;5.346;2023-10-19T01:12:46;3.92;;;0.80;;
33902;SDS011;20194;50.950;5.346;2023-10-19T01:15:13;8.45;;;1.15;;
33902;SDS011;20194;50.950;5.346;2023-10-19T01:17:46;2.95;;;0.95;;
33902;SDS011;20194;50.950;5.346;2023-10-19T01:20:23;10.98;;;1.20;;
33902;SDS011;20194;50.950;5.346;2023-10-19T01:23:10;4.18;;;0.60;;
33902;SDS011;20194;50.950;5.346;2023-10-19T01:25:56;2.67;;;0.90;;
33902;SDS011;20194;50.950;5.346;2023-10-19T01:31:10;1.67;;;0.77;;
33902;SDS011;20194;50.950;5.346;2023-10-19T01:33:47;3.42;;;0.85;;
33902;SDS011;20194;50.950;5.346;2023-10-19T01:36:15;4.75;;;0.77;;
33902;SDS011;20194;50.950;5.346;2023-10-19T01:38:53;5.35;;;0.90;;
33902;SDS011;20194;50.950;5.346;2023-10-19T01:41:22;2.97;;;0.95;;
33902;SDS011;20194;50.950;5.346;2023-10-19T01:43:49;2.10;;;1.00;;
33902;SDS011;20194;50.950;5.346;2023-10-19T01:46:21;5.13;;;1.27;;
33902;SDS011;20194;50.950;5.346;2023-10-19T01:48:54;3.75;;;1.02;;
33902;SDS011;20194;50.950;5.346;2023-10-19T01:51:21;4.38;;;0.57;;
33902;SDS011;20194;50.950;5.346;2023-10-19T01:53:51;2.53;;;0.75;;
33902;SDS011;20194;50.950;5.346;2023-10-19T01:56:18;7.15;;;2.05;;
33902;SDS011;20194;50.950;5.346;2023-10-19T01:58:45;3.20;;;0.75;;
33902;SDS011;20194;50.950;5.346;2023-10-19T02:01:16;3.13;;;0.80;;
33902;SDS011;20194;50.950;5.346;2023-10-19T02:03:58;2.05;;;0.75;;
33902;SDS011;20194;50.950;5.346;2023-10-19T02:06:28;3.75;;;0.90;;
33902;SDS011;20194;50.950;5.346;2023-10-19T02:08:59;3.88;;;0.70;;
33902;SDS011;20194;50.950;5.346;2023-10-19T02:11:26;4.22;;;1.02;;
33902;SDS011;20194;50.950;5.346;2023-10-19T02:13:53;8.40;;;0.50;;
33902;SDS011;20194;50.950;5.346;2023-10-19T02:16:21;4.38;;;0.50;;
33902;SDS011;20194;50.950;5.346;2023-10-19T02:18:48;5.68;;;1.40;;
33902;SDS011;20194;50.950;5.346;2023-10-19T02:21:15;2.00;;;0.60;;
33902;SDS011;20194;50.950;5.346;2023-10-19T02:23:47;4.55;;;1.05;;
33902;SDS011;20194;50.950;5.346;2023-10-19T02:26:15;5.25;;;1.00;;
33902;SDS011;20194;50.950;5.346;2023-10-19T02:28:46;4.07;;;1.23;;
33902;SDS011;20194;50.950;5.346;2023-10-19T02:31:12;8.23;;;1.00;;
33902;SDS011;20194;50.950;5.346;2023-10-19T02:33:42;8.18;;;0.75;;
33902;SDS011;20194;50.950;5.346;2023-10-19T02:36:20;3.67;;;0.80;;
33902;SDS011;20194;50.950;5.346;2023-10-19T02:38:46;5.22;;;0.82;;
33902;SDS011;20194;50.950;5.346;2023-10-19T02:41:18;3.58;;;0.85;;
33902;SDS011;20194;50.950;5.346;2023-10-19T02:43:47;6.25;;;0.77;;
33902;SDS011;20194;50.950;5.346;2023-10-19T02:46:26;3.47;;;1.08;;
33902;SDS011;20194;50.950;5.346;2023-10-19T02:48:52;1.85;;;0.70;;
33902;SDS011;20194;50.950;5.346;2023-10-19T02:51:17;6.72;;;0.80;;
33902;SDS011;20194;50.950;5.346;2023-10-19T02:53:44;4.65;;;0.73;;
33902;SDS011;20194;50.950;5.346;2023-10-19T02:56:13;9.80;;;1.00;;
33902;SDS011;20194;50.950;5.346;2023-10-19T02:58:42;3.67;;;0.73;;
33902;SDS011;20194;50.950;5.346;2023-10-19T03:01:17;8.38;;;1.35;;
33902;SDS011;20194;50.950;5.346;2023-10-19T03:03:54;4.13;;;0.77;;
33902;SDS011;20194;50.950;5.346;2023-10-19T03:06:24;5.03;;;1.02;;
33902;SDS011;20194;50.950;5.346;2023-10-19T03:08:51;3.95;;;0.77;;
33902;SDS011;20194;50.950;5.346;2023-10-19T03:11:25;6.60;;;0.90;;
33902;SDS011;20194;50.950;5.346;2023-10-19T03:13:52;2.92;;;0.90;;
33902;SDS011;20194;50.950;5.346;2023-10-19T03:16:19;4.72;;;0.80;;
33902;SDS011;20194;50.950;5.346;2023-10-19T03:18:46;4.15;;;1.20;;
33902;SDS011;20194;50.950;5.346;2023-10-19T03:21:12;6.50;;;1.35;;
33902;SDS011;20194;50.950;5.346;2023-10-19T03:23:38;10.38;;;1.67;;
33902;SDS011;20194;50.950;5.346;2023-10-19T03:26:06;5.28;;;0.73;;
33902;SDS011;20194;50.950;5.346;2023-10-19T03:28:50;3.30;;;1.00;;
33902;SDS011;20194;50.950;5.346;2023-10-19T03:31:23;2.03;;;0.73;;
33902;SDS011;20194;50.950;5.346;2023-10-19T03:33:52;1.77;;;0.65;;
33902;SDS011;20194;50.950;5.346;2023-10-19T03:36:25;3.78;;;1.08;;
33902;SDS011;20194;50.950;5.346;2023-10-19T03:38:51;7.25;;;1.08;;
33902;SDS011;20194;50.950;5.346;2023-10-19T03:41:19;9.32;;;1.13;;
33902;SDS011;20194;50.950;5.346;2023-10-19T03:43:53;6.50;;;1.70;;
33902;SDS011;20194;50.950;5.346;2023-10-19T03:46:19;5.78;;;1.42;;
33902;SDS011;20194;50.950;5.346;2023-10-19T03:49:02;3.92;;;0.70;;
33902;SDS011;20194;50.950;5.346;2023-10-19T03:51:46;8.57;;;1.27;;
33902;SDS011;20194;50.950;5.346;2023-10-19T03:54:28;6.45;;;1.33;;
33902;SDS011;20194;50.950;5.346;2023-10-19T03:56:57;3.58;;;0.80;;
33902;SDS011;20194;50.950;5.346;2023-10-19T03:59:27;8.93;;;1.30;;
33902;SDS011;20194;50.950;5.346;2023-10-19T04:01:57;4.00;;;1.00;;
33902;SDS011;20194;50.950;5.346;2023-10-19T04:04:24;6.28;;;1.13;;
33902;SDS011;20194;50.950;5.346;2023-10-19T04:06:50;8.38;;;1.13;;
33902;SDS011;20194;50.950;5.346;2023-10-19T04:09:23;8.40;;;1.05;;
33902;SDS011;20194;50.950;5.346;2023-10-19T04:11:53;4.60;;;1.40;;
33902;SDS011;20194;50.950;5.346;2023-10-19T04:14:22;6.35;;;1.38;;
33902;SDS011;20194;50.950;5.346;2023-10-19T04:16:48;2.53;;;1.23;;
33902;SDS011;20194;50.950;5.346;2023-10-19T04:19:14;6.22;;;1.10;;
33902;SDS011;20194;50.950;5.346;2023-10-19T04:21:41;8.70;;;1.50;;
33902;SDS011;20194;50.950;5.346;2023-10-19T04:24:12;4.18;;;1.10;;
33902;SDS011;20194;50.950;5.346;2023-10-19T04:26:38;7.10;;;1.50;;
33902;SDS011;20194;50.950;5.346;2023-10-19T04:29:05;9.85;;;1.63;;
33902;SDS011;20194;50.950;5.346;2023-10-19T04:31:38;7.47;;;2.22;;
33902;SDS011;20194;50.950;5.346;2023-10-19T04:34:19;12.20;;;1.52;;
33902;SDS011;20194;50.950;5.346;2023-10-19T04:36:50;5.72;;;1.80;;
33902;SDS011;20194;50.950;5.346;2023-10-19T04:39:16;7.72;;;1.50;;
33902;SDS011;20194;50.950;5.346;2023-10-19T04:41:44;9.48;;;1.27;;
33902;SDS011;20194;50.950;5.346;2023-10-19T04:44:13;4.82;;;1.35;;
33902;SDS011;20194;50.950;5.346;2023-10-19T04:46:40;8.30;;;1.55;;
33902;SDS011;20194;50.950;5.346;2023-10-19T04:49:06;8.32;;;2.13;;
33902;SDS011;20194;50.950;5.346;2023-10-19T04:51:32;5.38;;;1.02;;
33902;SDS011;20194;50.950;5.346;2023-10-19T04:54:03;15.02;;;2.83;;
33902;SDS011;20194;50.950;5.346;2023-10-19T04:56:30;9.75;;;1.20;;
33902;SDS011;20194;50.950;5.346;2023-10-19T04:58:56;9.68;;;1.45;;
33902;SDS011;20194;50.950;5.346;2023-10-19T05:01:22;8.10;;;1.75;;
33902;SDS011;20194;50.950;5.346;2023-10-19T05:03:48;8.80;;;1.40;;
33902;SDS011;20194;50.950;5.346;2023-10-19T05:06:13;9.40;;;1.55;;
33902;SDS011;20194;50.950;5.346;2023-10-19T05:08:39;5.68;;;1.23;;
33902;SDS011;20194;50.950;5.346;2023-10-19T05:11:05;6.28;;;1.33;;
33902;SDS011;20194;50.950;5.346;2023-10-19T05:13:31;5.18;;;1.50;;
33902;SDS011;20194;50.950;5.346;2023-10-19T05:15:58;4.35;;;1.42;;
33902;SDS011;20194;50.950;5.346;2023-10-19T05:18:24;11.38;;;1.23;;
33902;SDS011;20194;50.950;5.346;2023-10-19T05:20:54;14.32;;;3.13;;
33902;SDS011;20194;50.950;5.346;2023-10-19T05:23:25;11.98;;;1.80;;
33902;SDS011;20194;50.950;5.346;2023-10-19T05:25:53;6.22;;;1.45;;
33902;SDS011;20194;50.950;5.346;2023-10-19T05:28:24;10.00;;;1.45;;
33902;SDS011;20194;50.950;5.346;2023-10-19T05:30:50;11.82;;;2.35;;
33902;SDS011;20194;50.950;5.346;2023-10-19T05:33:16;8.50;;;1.52;;
33902;SDS011;20194;50.950;5.346;2023-10-19T05:35:46;9.93;;;1.63;;
33902;SDS011;20194;50.950;5.346;2023-10-19T05:38:15;6.95;;;1.67;;
33902;SDS011;20194;50.950;5.346;2023-10-19T05:40:48;8.48;;;1.90;;
33902;SDS011;20194;50.950;5.346;2023-10-19T05:43:15;5.95;;;1.65;;
33902;SDS011;20194;50.950;5.346;2023-10-19T05:45:41;12.63;;;1.80;;
33902;SDS011;20194;50.950;5.346;2023-10-19T05:48:07;8.95;;;1.63;;
33902;SDS011;20194;50.950;5.346;2023-10-19T05:50:33;8.70;;;1.67;;
33902;SDS011;20194;50.950;5.346;2023-10-19T05:52:59;7.50;;;1.63;;
33902;SDS011;20194;50.950;5.346;2023-10-19T05:55:25;9.60;;;1.65;;
33902;SDS011;20194;50.950;5.346;2023-10-19T05:57:51;13.80;;;1.80;;
33902;SDS011;20194;50.950;5.346;2023-10-19T06:00:17;8.40;;;1.80;;
33902;SDS011;20194;50.950;5.346;2023-10-19T06:02:45;8.98;;;1.50;;
33902;SDS011;20194;50.950;5.346;2023-10-19T06:05:14;7.70;;;1.83;;
33902;SDS011;20194;50.950;5.346;2023-10-19T06:07:47;9.20;;;1.98;;
33902;SDS011;20194;50.950;5.346;2023-10-19T06:10:16;7.28;;;1.33;;
33902;SDS011;20194;50.950;5.346;2023-10-19T06:12:45;8.52;;;2.22;;
33902;SDS011;20194;50.950;5.346;2023-10-19T06:15:12;12.93;;;1.55;;
33902;SDS011;20194;50.950;5.346;2023-10-19T06:17:39;10.10;;;1.95;;
33902;SDS011;20194;50.950;5.346;2023-10-19T06:20:07;11.40;;;1.30;;
33902;SDS011;20194;50.950;5.346;2023-10-19T06:22:49;10.52;;;2.10;;
33902;SDS011;20194;50.950;5.346;2023-10-19T06:25:19;5.68;;;1.35;;
33902;SDS011;20194;50.950;5.346;2023-10-19T06:27:49;9.35;;;1.27;;
33902;SDS011;20194;50.950;5.346;2023-10-19T06:30:16;10.15;;;1.77;;
33902;SDS011;20194;50.950;5.346;2023-10-19T06:32:55;11.43;;;1.63;;
33902;SDS011;20194;50.950;5.346;2023-10-19T06:35:25;9.40;;;1.42;;
33902;SDS011;20194;50.950;5.346;2023-10-19T06:37:52;6.32;;;1.48;;
33902;SDS011;20194;50.950;5.346;2023-10-19T06:40:20;9.88;;;1.73;;
33902;SDS011;20194;50.950;5.346;2023-10-19T06:42:47;6.00;;;1.45;;
33902;SDS011;20194;50.950;5.346;2023-10-19T06:45:14;10.15;;;1.42;;
33902;SDS011;20194;50.950;5.346;2023-10-19T06:47:42;9.38;;;1.42;;
33902;SDS011;20194;50.950;5.346;2023-10-19T06:50:12;6.45;;;1.42;;
33902;SDS011;20194;50.950;5.346;2023-10-19T06:52:41;9.10;;;1.60;;
33902;SDS011;20194;50.950;5.346;2023-10-19T06:55:10;9.02;;;1.67;;
33902;SDS011;20194;50.950;5.346;2023-10-19T06:57:42;2.53;;;0.85;;
33902;SDS011;20194;50.950;5.346;2023-10-19T07:00:13;15.65;;;1.60;;
33902;SDS011;20194;50.950;5.346;2023-10-19T07:02:45;10.57;;;2.70;;
33902;SDS011;20194;50.950;5.346;2023-10-19T07:05:12;10.52;;;1.85;;
33902;SDS011;20194;50.950;5.346;2023-10-19T07:07:42;9.15;;;1.85;;
33902;SDS011;20194;50.950;5.346;2023-10-19T07:10:09;9.82;;;1.92;;
33902;SDS011;20194;50.950;5.346;2023-10-19T07:12:39;8.00;;;1.52;;
33902;SDS011;20194;50.950;5.346;2023-10-19T07:15:09;4.20;;;2.20;;
33902;SDS011;20194;50.950;5.346;2023-10-19T07:17:44;9.27;;;2.40;;
33902;SDS011;20194;50.950;5.346;2023-10-19T07:20:15;14.45;;;3.70;;
33902;SDS011;20194;50.950;5.346;2023-10-19T07:22:51;14.20;;;4.68;;
33902;SDS011;20194;50.950;5.346;2023-10-19T07:25:17;18.88;;;6.43;;
33902;SDS011;20194;50.950;5.346;2023-10-19T07:27:49;12.75;;;4.82;;
33902;SDS011;20194;50.950;5.346;2023-10-19T07:30:19;13.48;;;3.90;;
33902;SDS011;20194;50.950;5.346;2023-10-19T07:32:47;15.73;;;4.82;;
33902;SDS011;20194;50.950;5.346;2023-10-19T07:35:16;22.80;;;6.95;;
33902;SDS011;20194;50.950;5.346;2023-10-19T07:37:43;16.58;;;6.40;;
33902;SDS011;20194;50.950;5.346;2023-10-19T07:40:10;9.85;;;4.07;;
33902;SDS011;20194;50.950;5.346;2023-10-19T07:42:39;18.80;;;4.90;;
33902;SDS011;20194;50.950;5.346;2023-10-19T07:45:05;12.40;;;5.57;;
33902;SDS011;20194;50.950;5.346;2023-10-19T07:47:37;16.65;;;5.55;;
33902;SDS011;20194;50.950;5.346;2023-10-19T07:50:08;15.75;;;4.70;;
33902;SDS011;20194;50.950;5.346;2023-10-19T07:52:51;18.67;;;4.07;;
33902;SDS011;20194;50.950;5.346;2023-10-19T07:55:19;13.27;;;4.57;;
33902;SDS011;20194;50.950;5.346;2023-10-19T07:57:48;18.80;;;4.70;;
33902;SDS011;20194;50.950;5.346;2023-10-19T08:00:15;15.13;;;3.22;;
33902;SDS011;20194;50.950;5.346;2023-10-19T08:02:43;11.95;;;3.53;;
33902;SDS011;20194;50.950;5.346;2023-10-19T08:05:11;14.52;;;2.75;;
33902;SDS011;20194;50.950;5.346;2023-10-19T08:07:40;13.05;;;3.47;;
33902;SDS011;20194;50.950;5.346;2023-10-19T08:10:12;25.80;;;5.05;;
33902;SDS011;20194;50.950;5.346;2023-10-19T08:12:41;23.20;;;4.75;;
33902;SDS011;20194;50.950;5.346;2023-10-19T08:15:11;12.98;;;2.72;;
33902;SDS011;20194;50.950;5.346;2023-10-19T08:17:38;13.30;;;2.72;;
33902;SDS011;20194;50.950;5.346;2023-10-19T08:20:05;22.75;;;3.05;;
33902;SDS011;20194;50.950;5.346;2023-10-19T08:22:41;13.85;;;3.30;;
33902;SDS011;20194;50.950;5.346;2023-10-19T08:25:08;12.68;;;3.70;;
33902;SDS011;20194;50.950;5.346;2023-10-19T08:27:43;12.40;;;3.05;;
33902;SDS011;20194;50.950;5.346;2023-10-19T08:30:13;15.35;;;2.65;;
33902;SDS011;20194;50.950;5.346;2023-10-19T08:32:40;13.25;;;3.30;;
33902;SDS011;20194;50.950;5.346;2023-10-19T08:35:07;11.00;;;3.42;;
33902;SDS011;20194;50.950;5.346;2023-10-19T08:37:36;14.68;;;4.90;;
33902;SDS011;20194;50.950;5.346;2023-10-19T08:40:04;14.23;;;4.53;;
33902;SDS011;20194;50.950;5.346;2023-10-19T08:42:40;14.88;;;3.55;;
33902;SDS011;20194;50.950;5.346;2023-10-19T08:45:06;8.15;;;2.45;;
33902;SDS011;20194;50.950;5.346;2023-10-19T08:47:34;12.73;;;2.90;;
33902;SDS011;20194;50.950;5.346;2023-10-19T08:50:02;13.38;;;3.55;;
33902;SDS011;20194;50.950;5.346;2023-10-19T08:52:30;13.98;;;4.03;;
33902;SDS011;20194;50.950;5.346;2023-10-19T08:54:57;12.40;;;2.92;;
33902;SDS011;20194;50.950;5.346;2023-10-19T08:57:23;15.18;;;3.40;;
33902;SDS011;20194;50.950;5.346;2023-10-19T08:59:49;10.25;;;2.65;;
33902;SDS011;20194;50.950;5.346;2023-10-19T09:02:15;16.52;;;3.50;;
33902;SDS011;20194;50.950;5.346;2023-10-19T09:04:44;13.82;;;4.85;;
33902;SDS011;20194;50.950;5.346;2023-10-19T09:07:13;15.05;;;3.40;;
33902;SDS011;20194;50.950;5.346;2023-10-19T09:09:41;14.93;;;2.67;;
33902;SDS011;20194;50.950;5.346;2023-10-19T09:12:07;14.38;;;2.30;;
33902;SDS011;20194;50.950;5.346;2023-10-19T09:14:34;13.07;;;2.53;;
33902;SDS011;20194;50.950;5.346;2023-10-19T09:17:02;16.38;;;2.88;;
33902;SDS011;20194;50.950;5.346;2023-10-19T09:19:37;10.30;;;3.00;;
33902;SDS011;20194;50.950;5.346;2023-10-19T09:22:13;11.70;;;1.98;;
33902;SDS011;20194;50.950;5.346;2023-10-19T09:24:46;8.65;;;1.70;;
33902;SDS011;20194;50.950;5.346;2023-10-19T09:27:16;10.77;;;1.90;;
33902;SDS011;20194;50.950;5.346;2023-10-19T09:29:42;15.68;;;2.30;;
33902;SDS011;20194;50.950;5.346;2023-10-19T09:32:08;14.13;;;2.40;;
33902;SDS011;20194;50.950;5.346;2023-10-19T09:34:35;8.90;;;2.30;;
33902;SDS011;20194;50.950;5.346;2023-10-19T09:37:01;13.40;;;2.22;;
33902;SDS011;20194;50.950;5.346;2023-10-19T09:39:28;8.00;;;2.05;;
33902;SDS011;20194;50.950;5.346;2023-10-19T09:42:09;9.68;;;2.10;;
33902;SDS011;20194;50.950;5.346;2023-10-19T09:44:40;16.52;;;2.83;;
33902;SDS011;20194;50.950;5.346;2023-10-19T09:47:12;8.73;;;2.10;;
33902;SDS011;20194;50.950;5.346;2023-10-19T09:50:00;11.95;;;2.40;;
33902;SDS011;20194;50.950;5.346;2023-10-19T09:52:26;18.65;;;2.72;;
33902;SDS011;20194;50.950;5.346;2023-10-19T09:57:52;7.10;;;2.38;;
33902;SDS011;20194;50.950;5.346;2023-10-19T10:00:24;15.88;;;3.00;;
33902;SDS011;20194;50.950;5.346;2023-10-19T10:02:51;14.45;;;2.15;;
33902;SDS011;20194;50.950;5.346;2023-10-19T10:08:41;13.20;;;2.75;;
33902;SDS011;20194;50.950;5.346;2023-10-19T10:11:16;12.88;;;2.58;;
33902;SDS011;20194;50.950;5.346;2023-10-19T10:13:44;21.65;;;2.30;;
33902;SDS011;20194;50.950;5.346;2023-10-19T10:16:13;13.75;;;2.33;;
33902;SDS011;20194;50.950;5.346;2023-10-19T10:18:42;9.98;;;2.03;;
33902;SDS011;20194;50.950;5.346;2023-10-19T10:26:21;16.67;;;2.40;;
33902;SDS011;20194;50.950;5.346;2023-10-19T10:29:07;9.63;;;2.40;;
33902;SDS011;20194;50.950;5.346;2023-10-19T10:31:45;17.33;;;2.78;;
33902;SDS011;20194;50.950;5.346;2023-10-19T10:37:06;12.25;;;2.15;;
33902;SDS011;20194;50.950;5.346;2023-10-19T10:39:36;9.43;;;2.17;;
33902;SDS011;20194;50.950;5.346;2023-10-19T10:42:08;11.07;;;2.30;;
33902;SDS011;20194;50.950;5.346;2023-10-19T10:44:47;15.83;;;2.73;;
33902;SDS011;20194;50.950;5.346;2023-10-19T10:47:21;17.73;;;3.17;;
33902;SDS011;20194;50.950;5.346;2023-10-19T10:49:56;15.40;;;2.33;;
33902;SDS011;20194;50.950;5.346;2023-10-19T10:52:24;15.90;;;2.55;;
33902;SDS011;20194;50.950;5.346;2023-10-19T10:54:54;13.45;;;2.38;;
33902;SDS011;20194;50.950;5.346;2023-10-19T10:57:20;11.48;;;2.40;;
33902;SDS011;20194;50.950;5.346;2023-10-19T10:59:46;10.48;;;2.35;;
33902;SDS011;20194;50.950;5.346;2023-10-19T11:02:16;9.15;;;2.20;;
33902;SDS011;20194;50.950;5.346;2023-10-19T11:04:46;11.98;;;2.80;;
33902;SDS011;20194;50.950;5.346;2023-10-19T11:07:18;10.93;;;2.38;;
33902;SDS011;20194;50.950;5.346;2023-10-19T11:09:49;10.98;;;2.50;;
33902;SDS011;20194;50.950;5.346;2023-10-19T11:12:15;9.63;;;2.38;;
33902;SDS011;20194;50.950;5.346;2023-10-19T11:14:57;11.13;;;2.20;;
33902;SDS011;20194;50.950;5.346;2023-10-19T11:17:24;10.27;;;2.20;;
33902;SDS011;20194;50.950;5.346;2023-10-19T11:19:58;10.10;;;2.25;;
33902;SDS011;20194;50.950;5.346;2023-10-19T11:22:25;6.78;;;2.15;;
33902;SDS011;20194;50.950;5.346;2023-10-19T11:24:52;12.05;;;2.38;;
33902;SDS011;20194;50.950;5.346;2023-10-19T11:27:25;7.60;;;1.75;;
33902;SDS011;20194;50.950;5.346;2023-10-19T11:32:21;9.75;;;2.78;;
33902;SDS011;20194;50.950;5.346;2023-10-19T11:34:46;9.15;;;2.47;;
33902;SDS011;20194;50.950;5.346;2023-10-19T11:37:13;12.95;;;2.45;;
33902;SDS011;20194;50.950;5.346;2023-10-19T11:39:39;8.63;;;2.10;;
33902;SDS011;20194;50.950;5.346;2023-10-19T11:42:05;12.35;;;2.42;;
33902;SDS011;20194;50.950;5.346;2023-10-19T11:44:31;10.38;;;2.30;;
33902;SDS011;20194;50.950;5.346;2023-10-19T11:46:56;10.93;;;1.85;;
33902;SDS011;20194;50.950;5.346;2023-10-19T11:49:22;13.50;;;2.45;;
33902;SDS011;20194;50.950;5.346;2023-10-19T11:51:48;10.98;;;2.00;;
33902;SDS011;20194;50.950;5.346;2023-10-19T11:54:14;10.50;;;2.28;;
33902;SDS011;20194;50.950;5.346;2023-10-19T11:56:41;11.40;;;2.35;;
33902;SDS011;20194;50.950;5.346;2023-10-19T11:59:06;14.60;;;2.38;;
33902;SDS011;20194;50.950;5.346;2023-10-19T12:01:32;9.00;;;1.70;;
33902;SDS011;20194;50.950;5.346;2023-10-19T12:03:58;13.95;;;2.72;;
33902;SDS011;20194;50.950;5.346;2023-10-19T12:06:25;13.38;;;2.38;;
33902;SDS011;20194;50.950;5.346;2023-10-19T12:08:50;12.35;;;2.63;;
33902;SDS011;20194;50.950;5.346;2023-10-19T12:11:16;14.25;;;2.72;;
33902;SDS011;20194;50.950;5.346;2023-10-19T12:13:43;9.95;;;2.25;;
33902;SDS011;20194;50.950;5.346;2023-10-19T12:16:13;10.75;;;2.90;;
33902;SDS011;20194;50.950;5.346;2023-10-19T12:18:42;12.57;;;2.13;;
33902;SDS011;20194;50.950;5.346;2023-10-19T12:21:09;7.07;;;1.40;;
33902;SDS011;20194;50.950;5.346;2023-10-19T12:23:39;11.15;;;2.10;;
33902;SDS011;20194;50.950;5.346;2023-10-19T12:26:06;6.30;;;1.92;;
33902;SDS011;20194;50.950;5.346;2023-10-19T12:28:39;9.82;;;2.55;;
33902;SDS011;20194;50.950;5.346;2023-10-19T12:31:06;11.50;;;2.22;;
33902;SDS011;20194;50.950;5.346;2023-10-19T12:33:36;10.65;;;1.42;;
33902;SDS011;20194;50.950;5.346;2023-10-19T12:36:03;8.85;;;1.73;;
33902;SDS011;20194;50.950;5.346;2023-10-19T12:38:48;10.32;;;2.45;;
33902;SDS011;20194;50.950;5.346;2023-10-19T12:41:18;8.10;;;2.47;;
33902;SDS011;20194;50.950;5.346;2023-10-19T12:43:44;12.25;;;2.08;;
33902;SDS011;20194;50.950;5.346;2023-10-19T12:46:13;13.63;;;2.13;;
33902;SDS011;20194;50.950;5.346;2023-10-19T12:48:40;11.02;;;2.25;;
33902;SDS011;20194;50.950;5.346;2023-10-19T12:51:07;9.35;;;2.15;;
33902;SDS011;20194;50.950;5.346;2023-10-19T12:53:34;7.78;;;2.20;;
33902;SDS011;20194;50.950;5.346;2023-10-19T12:56:00;9.10;;;2.53;;
33902;SDS011;20194;50.950;5.346;2023-10-19T12:58:25;8.60;;;2.33;;
33902;SDS011;20194;50.950;5.346;2023-10-19T13:00:53;7.05;;;1.92;;
33902;SDS011;20194;50.950;5.346;2023-10-19T13:03:20;5.35;;;1.85;;
33902;SDS011;20194;50.950;5.346;2023-10-19T13:05:47;11.50;;;2.67;;
33902;SDS011;20194;50.950;5.346;2023-10-19T13:08:15;7.40;;;1.77;;
33902;SDS011;20194;50.950;5.346;2023-10-19T13:10:44;9.05;;;1.90;;
33902;SDS011;20194;50.950;5.346;2023-10-19T13:13:12;6.63;;;2.45;;
33902;SDS011;20194;50.950;5.346;2023-10-19T13:15:42;7.68;;;2.13;;
33902;SDS011;20194;50.950;5.346;2023-10-19T13:18:10;11.13;;;1.85;;
33902;SDS011;20194;50.950;5.346;2023-10-19T13:20:37;8.23;;;2.40;;
33902;SDS011;20194;50.950;5.346;2023-10-19T13:23:06;10.45;;;2.00;;
33902;SDS011;20194;50.950;5.346;2023-10-19T13:25:36;7.10;;;1.70;;
33902;SDS011;20194;50.950;5.346;2023-10-19T13:28:19;10.15;;;1.75;;
33902;SDS011;20194;50.950;5.346;2023-10-19T13:30:50;5.43;;;1.90;;
33902;SDS011;20194;50.950;5.346;2023-10-19T13:33:18;6.90;;;2.45;;
33902;SDS011;20194;50.950;5.346;2023-10-19T13:35:49;7.00;;;1.90;;
33902;SDS011;20194;50.950;5.346;2023-10-19T13:38:15;7.20;;;1.85;;
33902;SDS011;20194;50.950;5.346;2023-10-19T13:40:45;6.43;;;2.22;;
33902;SDS011;20194;50.950;5.346;2023-10-19T13:43:11;5.97;;;2.03;;
33902;SDS011;20194;50.950;5.346;2023-10-19T13:45:43;9.10;;;2.55;;
33902;SDS011;20194;50.950;5.346;2023-10-19T13:48:10;10.00;;;2.55;;
33902;SDS011;20194;50.950;5.346;2023-10-19T13:50:40;8.43;;;2.60;;
33902;SDS011;20194;50.950;5.346;2023-10-19T13:53:09;6.78;;;2.67;;
33902;SDS011;20194;50.950;5.346;2023-10-19T13:55:35;6.53;;;1.70;;
33902;SDS011;20194;50.950;5.346;2023-10-19T13:58:01;5.63;;;2.10;;
33902;SDS011;20194;50.950;5.346;2023-10-19T14:00:29;7.40;;;1.90;;
33902;SDS011;20194;50.950;5.346;2023-10-19T14:02:58;5.88;;;1.73;;
33902;SDS011;20194;50.950;5.346;2023-10-19T14:05:26;11.75;;;2.10;;
33902;SDS011;20194;50.950;5.346;2023-10-19T14:07:52;8.40;;;2.38;;
33902;SDS011;20194;50.950;5.346;2023-10-19T14:10:19;9.30;;;1.95;;
33902;SDS011;20194;50.950;5.346;2023-10-19T14:12:46;7.88;;;2.40;;
33902;SDS011;20194;50.950;5.346;2023-10-19T14:15:17;8.10;;;1.58;;
33902;SDS011;20194;50.950;5.346;2023-10-19T14:17:45;5.97;;;1.63;;
33902;SDS011;20194;50.950;5.346;2023-10-19T14:20:12;5.05;;;1.77;;
33902;SDS011;20194;50.950;5.346;2023-10-19T14:22:42;9.40;;;2.00;;
33902;SDS011;20194;50.950;5.346;2023-10-19T14:25:09;7.07;;;1.70;;
33902;SDS011;20194;50.950;5.346;2023-10-19T14:27:41;4.70;;;1.85;;
33902;SDS011;20194;50.950;5.346;2023-10-19T14:30:09;5.65;;;1.65;;
33902;SDS011;20194;50.950;5.346;2023-10-19T14:32:37;7.07;;;1.67;;
33902;SDS011;20194;50.950;5.346;2023-10-19T14:35:07;8.52;;;1.75;;
33902;SDS011;20194;50.950;5.346;2023-10-19T14:37:44;4.53;;;1.67;;
33902;SDS011;20194;50.950;5.346;2023-10-19T14:40:11;6.72;;;1.98;;
33902;SDS011;20194;50.950;5.346;2023-10-19T14:42:39;6.20;;;2.05;;
33902;SDS011;20194;50.950;5.346;2023-10-19T14:47:40;9.32;;;2.15;;
33902;SDS011;20194;50.950;5.346;2023-10-19T14:50:07;5.32;;;2.05;;
33902;SDS011;20194;50.950;5.346;2023-10-19T14:52:45;7.75;;;1.92;;
33902;SDS011;20194;50.950;5.346;2023-10-19T14:55:13;4.03;;;1.98;;
33902;SDS011;20194;50.950;5.346;2023-10-19T14:57:41;5.22;;;1.85;;
33902;SDS011;20194;50.950;5.346;2023-10-19T15:00:08;7.70;;;1.85;;
33902;SDS011;20194;50.950;5.346;2023-10-19T15:02:47;5.18;;;1.50;;
33902;SDS011;20194;50.950;5.346;2023-10-19T15:05:20;5.10;;;1.63;;
33902;SDS011;20194;50.950;5.346;2023-10-19T15:07:51;3.95;;;1.63;;
33902;SDS011;20194;50.950;5.346;2023-10-19T15:10:19;5.45;;;1.83;;
33902;SDS011;20194;50.950;5.346;2023-10-19T15:12:48;5.03;;;1.90;;
33902;SDS011;20194;50.950;5.346;2023-10-19T15:15:14;6.13;;;2.00;;
33902;SDS011;20194;50.950;5.346;2023-10-19T15:17:40;4.68;;;1.90;;
33902;SDS011;20194;50.950;5.346;2023-10-19T15:20:07;4.80;;;1.92;;
33902;SDS011;20194;50.950;5.346;2023-10-19T15:22:35;5.60;;;1.60;;